sensor_id;sensor_type;location;lat;lon;timestamp;P1;durP1;ratioP1;P2;durP2;ratioP2
34035;SDS011;63481;52.588;22.472;2023-04-16T00:00:25;49.00;;;40.50;;
34035;SDS011;63481;52.588;22.472;2023-04-16T00:01:35;24.70;;;20.00;;
34035;SDS011;63481;52.588;22.472;2023-04-16T00:02:28;33.30;;;27.40;;
34035;SDS011;63481;52.588;22.472;2023-04-16T00:03:21;38.90;;;34.10;;
34035;SDS011;63481;52.588;22.472;2023-04-16T00:04:14;29.20;;;21.10;;
34035;SDS011;63481;52.588;22.472;2023-04-16T00:05:08;38.90;;;33.90;;
34035;SDS011;63481;52.588;22.472;2023-04-16T00:06:01;23.90;;;19.20;;
34035;SDS011;63481;52.588;22.472;2023-04-16T00:06:54;26.80;;;22.40;;
34035;SDS011;63481;52.588;22.472;2023-04-16T00:07:47;25.80;;;19.80;;
34035;SDS011;63481;52.588;22.472;2023-04-16T00:08:40;42.80;;;33.50;;
34035;SDS011;63481;52.588;22.472;2023-04-16T00:09:34;79.60;;;70.20;;
34035;SDS011;63481;52.588;22.472;2023-04-16T00:10:28;19.40;;;15.50;;
34035;SDS011;63481;52.588;22.472;2023-04-16T00:11:20;31.10;;;27.30;;
34035;SDS011;63481;52.588;22.472;2023-04-16T00:12:14;51.10;;;45.60;;
34035;SDS011;63481;52.588;22.472;2023-04-16T00:13:07;46.50;;;41.70;;
34035;SDS011;63481;52.588;22.472;2023-04-16T00:14:00;92.80;;;83.40;;
34035;SDS011;63481;52.588;22.472;2023-04-16T00:14:53;42.20;;;36.70;;
34035;SDS011;63481;52.588;22.472;2023-04-16T00:15:46;29.40;;;26.50;;
34035;SDS011;63481;52.588;22.472;2023-04-16T00:16:39;18.00;;;14.90;;
34035;SDS011;63481;52.588;22.472;2023-04-16T00:17:33;52.90;;;47.40;;
34035;SDS011;63481;52.588;22.472;2023-04-16T00:18:26;25.20;;;19.50;;
34035;SDS011;63481;52.588;22.472;2023-04-16T00:19:19;38.40;;;34.10;;
34035;SDS011;63481;52.588;22.472;2023-04-16T00:20:12;24.90;;;20.00;;
34035;SDS011;63481;52.588;22.472;2023-04-16T00:21:06;30.10;;;24.30;;
34035;SDS011;63481;52.588;22.472;2023-04-16T00:21:59;27.60;;;23.90;;
34035;SDS011;63481;52.588;22.472;2023-04-16T00:22:52;22.40;;;16.50;;
34035;SDS011;63481;52.588;22.472;2023-04-16T00:23:45;21.10;;;16.70;;
34035;SDS011;63481;52.588;22.472;2023-04-16T00:24:38;10.00;;;6.40;;
34035;SDS011;63481;52.588;22.472;2023-04-16T00:25:31;18.40;;;13.40;;
34035;SDS011;63481;52.588;22.472;2023-04-16T00:26:24;18.40;;;14.30;;
34035;SDS011;63481;52.588;22.472;2023-04-16T00:27:18;11.90;;;7.60;;
34035;SDS011;63481;52.588;22.472;2023-04-16T00:28:12;16.40;;;13.10;;
34035;SDS011;63481;52.588;22.472;2023-04-16T00:29:05;11.90;;;9.00;;
34035;SDS011;63481;52.588;22.472;2023-04-16T00:29:58;13.20;;;11.20;;
34035;SDS011;63481;52.588;22.472;2023-04-16T00:30:51;9.10;;;4.90;;
34035;SDS011;63481;52.588;22.472;2023-04-16T00:31:43;22.30;;;20.00;;
34035;SDS011;63481;52.588;22.472;2023-04-16T00:32:36;23.80;;;21.30;;
34035;SDS011;63481;52.588;22.472;2023-04-16T00:33:30;12.20;;;9.50;;
34035;SDS011;63481;52.588;22.472;2023-04-16T00:34:23;21.90;;;16.40;;
34035;SDS011;63481;52.588;22.472;2023-04-16T00:35:16;22.00;;;19.60;;
34035;SDS011;63481;52.588;22.472;2023-04-16T00:36:09;9.70;;;6.00;;
34035;SDS011;63481;52.588;22.472;2023-04-16T00:37:02;20.50;;;18.30;;
34035;SDS011;63481;52.588;22.472;2023-04-16T00:37:55;11.40;;;8.60;;
34035;SDS011;63481;52.588;22.472;2023-04-16T00:38:48;15.60;;;13.60;;
34035;SDS011;63481;52.588;22.472;2023-04-16T00:39:41;14.50;;;10.20;;
34035;SDS011;63481;52.588;22.472;2023-04-16T00:40:34;435.40;;;297.50;;
34035;SDS011;63481;52.588;22.472;2023-04-16T00:41:27;414.70;;;268.70;;
34035;SDS011;63481;52.588;22.472;2023-04-16T00:42:20;697.20;;;540.10;;
34035;SDS011;63481;52.588;22.472;2023-04-16T00:43:20;758.30;;;628.00;;
34035;SDS011;63481;52.588;22.472;2023-04-16T00:44:14;549.80;;;467.80;;
34035;SDS011;63481;52.588;22.472;2023-04-16T00:45:08;331.50;;;262.80;;
34035;SDS011;63481;52.588;22.472;2023-04-16T00:46:01;177.20;;;142.90;;
34035;SDS011;63481;52.588;22.472;2023-04-16T00:46:57;430.50;;;365.50;;
34035;SDS011;63481;52.588;22.472;2023-04-16T00:47:50;240.60;;;201.50;;
34035;SDS011;63481;52.588;22.472;2023-04-16T00:48:43;457.50;;;406.10;;
34035;SDS011;63481;52.588;22.472;2023-04-16T00:49:37;719.40;;;545.70;;
34035;SDS011;63481;52.588;22.472;2023-04-16T00:50:31;399.10;;;324.40;;
34035;SDS011;63481;52.588;22.472;2023-04-16T00:51:25;250.10;;;222.30;;
34035;SDS011;63481;52.588;22.472;2023-04-16T00:52:18;136.10;;;116.20;;
34035;SDS011;63481;52.588;22.472;2023-04-16T00:53:11;210.00;;;169.70;;
34035;SDS011;63481;52.588;22.472;2023-04-16T00:54:05;478.90;;;383.30;;
34035;SDS011;63481;52.588;22.472;2023-04-16T00:54:58;931.80;;;664.90;;
34035;SDS011;63481;52.588;22.472;2023-04-16T00:55:50;172.40;;;118.00;;
34035;SDS011;63481;52.588;22.472;2023-04-16T00:56:43;266.30;;;201.60;;
34035;SDS011;63481;52.588;22.472;2023-04-16T00:57:36;214.70;;;175.80;;
34035;SDS011;63481;52.588;22.472;2023-04-16T00:58:31;226.00;;;201.10;;
34035;SDS011;63481;52.588;22.472;2023-04-16T00:59:26;83.30;;;74.20;;
34035;SDS011;63481;52.588;22.472;2023-04-16T01:00:20;29.10;;;22.20;;
34035;SDS011;63481;52.588;22.472;2023-04-16T01:01:13;15.20;;;10.60;;
34035;SDS011;63481;52.588;22.472;2023-04-16T01:02:05;18.10;;;14.50;;
34035;SDS011;63481;52.588;22.472;2023-04-16T01:02:58;20.60;;;17.70;;
34035;SDS011;63481;52.588;22.472;2023-04-16T01:03:51;12.90;;;8.60;;
34035;SDS011;63481;52.588;22.472;2023-04-16T01:04:44;17.50;;;15.60;;
34035;SDS011;63481;52.588;22.472;2023-04-16T01:05:36;42.30;;;38.40;;
34035;SDS011;63481;52.588;22.472;2023-04-16T01:06:30;223.40;;;203.80;;
34035;SDS011;63481;52.588;22.472;2023-04-16T01:07:23;109.80;;;99.70;;
34035;SDS011;63481;52.588;22.472;2023-04-16T01:08:16;60.50;;;54.50;;
34035;SDS011;63481;52.588;22.472;2023-04-16T01:09:10;168.50;;;152.80;;
34035;SDS011;63481;52.588;22.472;2023-04-16T01:09:45;71.40;;;64.70;;
34035;SDS011;63481;52.588;22.472;2023-04-16T01:10:17;93.70;;;84.90;;
34035;SDS011;63481;52.588;22.472;2023-04-16T01:10:49;21.30;;;18.30;;
34035;SDS011;63481;52.588;22.472;2023-04-16T01:11:22;168.50;;;134.20;;
34035;SDS011;63481;52.588;22.472;2023-04-16T01:11:54;78.00;;;60.90;;
34035;SDS011;63481;52.588;22.472;2023-04-16T01:12:26;32.00;;;25.80;;
34035;SDS011;63481;52.588;22.472;2023-04-16T01:12:59;21.50;;;17.00;;
34035;SDS011;63481;52.588;22.472;2023-04-16T01:13:31;22.50;;;19.30;;
34035;SDS011;63481;52.588;22.472;2023-04-16T01:14:04;24.00;;;19.90;;
34035;SDS011;63481;52.588;22.472;2023-04-16T01:14:36;84.00;;;76.00;;
34035;SDS011;63481;52.588;22.472;2023-04-16T01:15:09;102.40;;;93.20;;
34035;SDS011;63481;52.588;22.472;2023-04-16T01:15:42;36.80;;;33.30;;
34035;SDS011;63481;52.588;22.472;2023-04-16T01:16:14;110.90;;;100.00;;
34035;SDS011;63481;52.588;22.472;2023-04-16T01:16:46;56.90;;;51.40;;
34035;SDS011;63481;52.588;22.472;2023-04-16T01:17:19;84.00;;;76.90;;
34035;SDS011;63481;52.588;22.472;2023-04-16T01:17:51;58.80;;;53.70;;
34035;SDS011;63481;52.588;22.472;2023-04-16T01:18:24;64.00;;;58.80;;
34035;SDS011;63481;52.588;22.472;2023-04-16T01:18:57;21.40;;;19.20;;
34035;SDS011;63481;52.588;22.472;2023-04-16T01:19:29;50.30;;;45.60;;
34035;SDS011;63481;52.588;22.472;2023-04-16T01:20:02;15.10;;;12.00;;
34035;SDS011;63481;52.588;22.472;2023-04-16T01:20:35;26.70;;;24.20;;
34035;SDS011;63481;52.588;22.472;2023-04-16T01:21:07;12.90;;;10.30;;
34035;SDS011;63481;52.588;22.472;2023-04-16T01:21:39;24.40;;;22.00;;
34035;SDS011;63481;52.588;22.472;2023-04-16T01:22:12;23.30;;;21.10;;
34035;SDS011;63481;52.588;22.472;2023-04-16T01:22:44;26.10;;;23.70;;
34035;SDS011;63481;52.588;22.472;2023-04-16T01:23:18;14.40;;;13.00;;
34035;SDS011;63481;52.588;22.472;2023-04-16T01:23:51;8.80;;;6.20;;
34035;SDS011;63481;52.588;22.472;2023-04-16T01:24:23;9.50;;;6.20;;
34035;SDS011;63481;52.588;22.472;2023-04-16T01:24:55;10.60;;;7.00;;
34035;SDS011;63481;52.588;22.472;2023-04-16T01:25:28;16.00;;;11.40;;
34035;SDS011;63481;52.588;22.472;2023-04-16T01:26:00;17.70;;;15.50;;
34035;SDS011;63481;52.588;22.472;2023-04-16T01:26:32;11.90;;;9.70;;
34035;SDS011;63481;52.588;22.472;2023-04-16T01:27:05;6.90;;;4.60;;
34035;SDS011;63481;52.588;22.472;2023-04-16T01:27:37;5.20;;;3.50;;
34035;SDS011;63481;52.588;22.472;2023-04-16T01:28:09;4.90;;;2.60;;
34035;SDS011;63481;52.588;22.472;2023-04-16T01:28:42;3.10;;;2.00;;
34035;SDS011;63481;52.588;22.472;2023-04-16T01:29:14;5.40;;;2.50;;
34035;SDS011;63481;52.588;22.472;2023-04-16T01:29:46;4.20;;;2.70;;
34035;SDS011;63481;52.588;22.472;2023-04-16T01:30:21;5.10;;;2.60;;
34035;SDS011;63481;52.588;22.472;2023-04-16T01:31:01;4.80;;;2.20;;
34035;SDS011;63481;52.588;22.472;2023-04-16T01:31:49;5.30;;;2.90;;
34035;SDS011;63481;52.588;22.472;2023-04-16T01:32:30;4.90;;;3.00;;
34035;SDS011;63481;52.588;22.472;2023-04-16T01:33:03;5.70;;;2.90;;
34035;SDS011;63481;52.588;22.472;2023-04-16T01:33:36;7.60;;;3.30;;
34035;SDS011;63481;52.588;22.472;2023-04-16T01:34:08;4.80;;;2.50;;
34035;SDS011;63481;52.588;22.472;2023-04-16T01:34:41;3.50;;;2.20;;
34035;SDS011;63481;52.588;22.472;2023-04-16T01:35:16;8.20;;;3.10;;
34035;SDS011;63481;52.588;22.472;2023-04-16T01:35:51;4.40;;;2.30;;
34035;SDS011;63481;52.588;22.472;2023-04-16T01:36:23;4.80;;;2.10;;
34035;SDS011;63481;52.588;22.472;2023-04-16T01:36:57;3.10;;;2.20;;
34035;SDS011;63481;52.588;22.472;2023-04-16T01:37:29;4.20;;;2.70;;
34035;SDS011;63481;52.588;22.472;2023-04-16T01:38:02;5.20;;;2.70;;
34035;SDS011;63481;52.588;22.472;2023-04-16T01:38:36;7.80;;;4.20;;
34035;SDS011;63481;52.588;22.472;2023-04-16T01:39:08;6.10;;;3.40;;
34035;SDS011;63481;52.588;22.472;2023-04-16T01:39:46;4.50;;;2.90;;
